Impacts TAF Board INFO
FOR SITUATIONAL AWARENESS. NOT TO BE USED FOR FLIGHT PLANNING PURPOSES.
IDs:

KPDX - Portland Intl Arpt, OR, US

Issued at 0852 UTC 27 May 2017
Updated at 0957 UTC 27 May 2017
Potential Impact None Slight Moderate High
Time0953Z 27/10Z 27/11Z 27/12Z 27/13Z 27/14Z 27/15Z 27/16Z 27/17Z 27/18Z 27/19Z 27/20Z 27/21Z 27/22Z>>
Type OBS PRVL PRVL PRVL PRVL PRVL PRVL PRVL PRVL PRVL PRVL PRVL PRVL PRVL
VIS 10 >6 >6 >6 >6 >6 >6 >6 >6 >6 >6 >6 >6 >6
CIG -- -- -- -- -- -- -- -- -- -- -- -- -- --
Cover CLR SKC SKC SKC SKC SKC SKC SKC SKC SKC SKC SKC SKC SKC
FltCat VFR VFR VFR VFR VFR VFR VFR VFR VFR VFR VFR VFR VFR VFR
WX -- -- -- -- -- -- -- -- -- -- -- -- -- --
WDir 90 VRB VRB VRB VRB VRB VRB VRB VRB VRB VRB VRB VRB 330
WSpd 3 3 3 3 3 3 3 3 3 3 3 3 3 7
WGst -- -- -- -- -- -- -- -- -- -- -- -- -- --

Raw TAF
KPDX 270852Z 2709/2806 VRB03KT P6SM SKC
  FM272200 33007KT P6SM SKC


Raw METAR
KPDX 270953Z 09003KT 10SM CLR 15/11 A3001 RMK AO2 SLP160 T01500111 $
KPDX 270853Z 00000KT 10SM CLR 16/10 A3000 RMK AO2 SLP156 T01610100 51009 $
KPDX 270753Z 07003KT 10SM CLR 17/11 A2999 RMK AO2 SLP154 T01670106 402830111 $
KPDX 270653Z 30005KT 10SM CLR 21/09 A2998 RMK AO2 SLP150 T02060089 $

METAR Board
Radar Display
Forecast Discussion

FOR SITUATIONAL AWARENESS. NOT TO BE USED FOR FLIGHT PLANNING PURPOSES.

Page loaded:  09:57 UTC  |   02:57 AM Pacific  |   03:57 AM Mountain  |   04:57 AM Central  |   05:57 AM Eastern

 

ADVISORIES

FORECASTS

FORECASTS

OBSERVATIONS

USER TOOLS

ABOUT US